Time;durP1;ratioP1;P1;durP2;ratioP2;P2;SDS_P1;SDS_P2;PMS_P1;PMS_P2;Temp;Humidity;BMP_temperature;BMP_pressure;BME280_temperature;BME280_humidity;BME280_pressure;Samples;Min_cycle;Max_cycle;Signal;HPM_P1;HPM_P2
2022/09/17 00:00:51;;;;;;;3.92;3.05;;;;;;;26.39;53.33;100579.34;1647074;87;21089;-55
2022/09/17 00:03:17;;;;;;;10.55;4.30;;;;;;;26.41;53.08;100580.53;1641194;87;21078;-56
2022/09/17 00:05:44;;;;;;;9.25;4.10;;;;;;;26.37;53.21;100577.79;1656765;87;21119;-54
2022/09/17 00:08:13;;;;;;;10.00;3.75;;;;;;;26.34;53.54;100574.05;1673169;86;21045;-58
2022/09/17 00:10:43;;;;;;;9.38;4.20;;;;;;;26.31;53.62;100573.01;1643629;87;21073;-62
2022/09/17 00:13:10;;;;;;;8.15;3.55;;;;;;;26.27;53.60;100567.11;1644954;87;21065;-54
2022/09/17 00:15:44;;;;;;;7.33;3.42;;;;;;;26.23;53.73;100567.52;1640500;87;21053;-53
2022/09/17 00:18:12;;;;;;;5.17;3.20;;;;;;;26.21;53.63;100558.81;1644658;87;21053;-54
2022/09/17 00:20:45;;;;;;;4.75;3.20;;;;;;;26.17;53.97;100552.06;1640871;87;21099;-53
2022/09/17 00:23:12;;;;;;;6.60;2.90;;;;;;;26.04;53.87;100538.10;1644924;87;21085;-55
2022/09/17 00:25:41;;;;;;;4.47;3.02;;;;;;;26.04;53.87;100538.10;1640546;87;21093;-54
2022/09/17 00:28:07;;;;;;;5.10;3.05;;;;;;;25.99;53.94;100541.69;1644964;87;21526;-56
2022/09/17 00:30:41;;;;;;;5.22;3.58;;;;;;;25.88;54.41;100527.12;1640699;87;21596;-55
2022/09/17 00:33:10;;;;;;;7.70;3.83;;;;;;;25.88;54.41;100527.12;1645033;87;21548;-56
2022/09/17 00:35:38;;;;;;;5.97;4.00;;;;;;;25.82;54.67;100526.67;1640691;87;21090;-54
2022/09/17 00:38:05;;;;;;;6.75;3.75;;;;;;;25.78;55.01;100522.59;1657434;86;21065;-60
2022/09/17 00:40:31;;;;;;;10.63;4.72;;;;;;;25.75;55.36;100514.87;1641046;87;21097;-55
2022/09/17 00:42:58;;;;;;;5.62;3.40;;;;;;;25.70;55.79;100509.09;1641018;87;21021;-53
2022/09/17 00:45:24;;;;;;;10.18;4.37;;;;;;;25.65;56.15;100507.34;1639278;87;21187;-56
2022/09/17 00:47:58;;;;;;;7.40;3.70;;;;;;;25.59;56.31;100501.70;1609380;89;21101;-53
2022/09/17 00:50:39;;;;;;;7.05;3.85;;;;;;;25.58;56.50;100496.86;1622625;88;21029;-54
2022/09/17 00:53:13;;;;;;;7.37;4.33;;;;;;;25.56;56.75;100495.30;1628626;86;21625;-54
2022/09/17 00:56:04;;;;;;;5.97;3.87;;;;;;;25.56;56.83;100500.15;1625994;88;21001;-53
2022/09/17 00:58:30;;;;;;;8.10;3.67;;;;;;;25.55;56.89;100501.14;1629981;86;21010;-54
2022/09/17 01:00:58;;;;;;;4.78;3.27;;;;;;;25.54;56.68;100510.09;1637858;86;21051;-58
2022/09/17 01:03:26;;;;;;;6.20;3.58;;;;;;;25.51;56.53;100497.55;1637849;86;21041;-54
2022/09/17 01:06:37;;;;;;;7.03;4.35;;;;;;;25.54;56.73;100503.44;1637987;86;21033;-55
2022/09/17 01:09:09;;;;;;;6.08;3.47;;;;;;;25.53;57.21;100505.73;1627889;86;21493;-56
2022/09/17 01:12:14;;;;;;;7.12;3.75;;;;;;;25.54;57.38;100498.11;1601617;87;21053;-54
2022/09/17 01:15:25;;;;;;;7.08;2.87;;;;;;;25.51;57.30;100493.03;1612131;87;21097;-54
2022/09/17 01:18:06;;;;;;;4.35;2.83;;;;;;;25.53;57.09;100484.93;1615134;87;21685;-59
2022/09/17 01:21:08;;;;;;;6.80;3.08;;;;;;;25.54;57.18;100485.27;1615165;87;21602;-54
2022/09/17 01:23:52;;;;;;;;;;;;;;;25.54;57.18;100485.27;1617007;87;21083;-54
2022/09/17 01:26:55;;;;;;;7.42;2.60;;;;;;;25.56;57.43;100488.64;1614553;87;20154;-54
2022/09/17 01:29:45;;;;;;;6.70;2.72;;;;;;;25.55;57.57;100483.83;1589063;89;21083;-60
2022/09/17 01:32:27;;;;;;;12.45;3.27;;;;;;;25.52;57.52;100473.42;1541214;92;21542;-55
2022/09/17 01:35:28;;;;;;;8.10;3.37;;;;;;;25.51;57.55;100477.05;1541491;92;21589;-54
2022/09/17 01:38:12;;;;;;;8.00;2.90;;;;;;;25.50;57.79;100472.72;1541356;92;21149;-59
2022/09/17 01:41:06;;;;;;;5.53;2.67;;;;;;;25.48;57.95;100478.67;1539660;92;21116;-53
2022/09/17 01:43:39;;;;;;;3.85;2.33;;;;;;;25.46;57.92;100472.63;1537263;93;21113;-55
2022/09/17 01:46:23;;;;;;;4.20;2.12;;;;;;;25.46;57.94;100476.63;1439430;100;21246;-53
2022/09/17 01:48:52;;;;;;;3.50;1.92;;;;;;;25.44;57.60;100471.92;1440351;98;21616;-54
2022/09/17 01:51:22;;;;;;;3.80;2.42;;;;;;;25.43;57.64;100460.90;1482820;96;21580;-58
2022/09/17 01:54:03;;;;;;;4.83;2.10;;;;;;;25.42;57.50;100463.22;1490126;96;21166;-53
2022/09/17 01:56:37;;;;;;;3.80;2.27;;;;;;;25.42;57.44;100461.89;1481470;96;21617;-55
2022/09/17 01:59:22;;;;;;;5.30;2.35;;;;;;;25.39;57.83;100458.63;1480625;96;21077;-54
2022/09/17 02:01:54;;;;;;;5.85;2.35;;;;;;;25.39;57.83;100458.63;1481052;96;21116;-55
2022/09/17 02:04:31;;;;;;;9.08;2.42;;;;;;;25.39;57.82;100462.11;1483319;96;21197;-60
2022/09/17 02:07:02;;;;;;;7.35;2.52;;;;;;;25.39;57.95;100451.46;1437602;99;21217;-54
2022/09/17 02:09:37;;;;;;;5.37;2.35;;;;;;;25.39;58.07;100450.64;1444802;98;21230;-53
2022/09/17 02:12:07;;;;;;;7.10;2.90;;;;;;;25.43;57.91;100448.09;1458805;97;21102;-54
2022/09/17 02:14:41;;;;;;;5.67;3.33;;;;;;;25.46;57.96;100452.66;1482587;96;21145;-59
2022/09/17 02:17:16;;;;;;;5.53;3.27;;;;;;;25.49;57.93;100458.20;1476492;96;21137;-58
2022/09/17 02:19:43;;;;;;;4.30;3.08;;;;;;;25.51;57.89;100461.58;1390513;103;21119;-55
2022/09/17 02:22:24;;;;;;;5.47;3.15;;;;;;;25.54;57.63;100458.14;1394712;103;21115;-53
2022/09/17 02:25:21;;;;;;;6.97;3.10;;;;;;;25.54;57.63;100458.14;1396808;101;21164;-53
2022/09/17 02:28:24;;;;;;;5.22;3.08;;;;;;;25.49;57.94;100458.20;1395086;103;21168;-56
2022/09/17 02:30:51;;;;;;;5.58;3.05;;;;;;;25.51;58.06;100459.73;1392578;103;21643;-53
2022/09/17 02:33:17;;;;;;;5.35;3.00;;;;;;;25.55;58.21;100459.84;1390763;103;21127;-57
2022/09/17 02:35:45;;;;;;;7.30;3.33;;;;;;;25.55;58.21;100459.84;1394943;103;21119;-56
2022/09/17 02:38:12;;;;;;;5.05;3.92;;;;;;;25.57;58.28;100460.55;1389016;101;21635;-53
2022/09/17 02:40:47;;;;;;;7.58;3.80;;;;;;;25.58;58.32;100458.70;1393426;103;21129;-57
2022/09/17 02:43:42;;;;;;;7.85;3.87;;;;;;;25.58;58.41;100454.23;1399874;100;21085;-55
2022/09/17 02:46:34;;;;;;;7.10;3.92;;;;;;;25.61;58.54;100451.30;1440041;99;21141;-57
2022/09/17 02:49:15;;;;;;;5.83;4.08;;;;;;;25.73;58.34;100439.55;1434513;99;21117;-57
2022/09/17 02:51:56;;;;;;;6.65;4.17;;;;;;;25.73;58.34;100439.55;1434883;99;21159;-55
2022/09/17 02:54:33;;;;;;;8.23;4.22;;;;;;;25.74;58.37;100439.89;1434470;99;21612;-56
2022/09/17 02:57:26;;;;;;;6.12;4.00;;;;;;;25.73;58.28;100428.89;1460874;95;21677;-58
2022/09/17 03:00:04;;;;;;;4.85;3.98;;;;;;;25.70;58.55;100420.30;1493869;96;21123;-53
2022/09/17 03:02:39;;;;;;;8.35;4.35;;;;;;;25.73;58.82;100436.89;1497647;94;21579;-52
2022/09/17 03:05:07;;;;;;;5.83;4.40;;;;;;;25.73;58.82;100436.89;1547399;92;21059;-51
2022/09/17 03:07:35;;;;;;;4.50;4.10;;;;;;;25.72;59.04;100428.52;1572598;89;21073;-53
2022/09/17 03:10:04;;;;;;;6.47;4.83;;;;;;;25.67;59.27;100433.92;1544002;90;21176;-53
2022/09/17 03:12:31;;;;;;;9.13;5.60;;;;;;;25.66;59.42;100431.73;1561357;92;21091;-51
2022/09/17 03:14:57;;;;;;;9.08;5.45;;;;;;;25.67;59.68;100433.92;1581095;90;21031;-56
2022/09/17 03:17:24;;;;;;;8.58;5.12;;;;;;;25.66;60.05;100429.55;1590549;90;21129;-52
2022/09/17 03:19:50;;;;;;;7.95;5.50;;;;;;;25.65;60.00;100420.74;1561468;90;21564;-51
2022/09/17 03:22:17;;;;;;;6.45;5.42;;;;;;;25.67;60.10;100410.78;1581290;90;21131;-51
2022/09/17 03:24:44;;;;;;;6.05;5.08;;;;;;;25.69;60.23;100402.64;1590516;90;21082;-56
2022/09/17 03:27:10;;;;;;;6.10;5.50;;;;;;;25.69;60.23;100402.64;1561160;92;21093;-52
2022/09/17 03:29:37;;;;;;;6.85;5.60;;;;;;;25.70;60.40;100396.32;1573201;90;21651;-53
2022/09/17 03:32:05;;;;;;;7.30;6.12;;;;;;;25.69;60.58;100399.50;1590889;90;21081;-56
2022/09/17 03:34:31;;;;;;;6.75;6.08;;;;;;;25.68;60.78;100398.28;1563128;92;21607;-52
2022/09/17 03:36:58;;;;;;;8.40;6.42;;;;;;;25.67;61.03;100393.47;1606138;87;21127;-51
2022/09/17 03:39:24;;;;;;;7.80;6.17;;;;;;;25.67;61.03;100393.47;1679295;84;21012;-54
2022/09/17 03:41:51;;;;;;;10.40;7.05;;;;;;;25.71;61.39;100404.20;1679342;85;21087;-56
2022/09/17 03:44:18;;;;;;;10.72;7.15;;;;;;;25.71;61.48;100397.54;1679503;85;21095;-54
2022/09/17 03:46:45;;;;;;;9.58;6.87;;;;;;;25.72;61.65;100395.20;1679479;84;21004;-51
2022/09/17 03:49:12;;;;;;;8.40;6.17;;;;;;;25.72;61.77;100397.88;1679319;85;21067;-52
2022/09/17 03:51:39;;;;;;;9.55;6.70;;;;;;;25.73;61.91;100395.58;1679292;84;21023;-53
2022/09/17 03:54:06;;;;;;;8.38;6.35;;;;;;;25.74;62.04;100398.58;1679385;84;21070;-53
2022/09/17 03:56:32;;;;;;;9.90;6.75;;;;;;;25.75;62.16;100400.27;1679668;84;22100;-56
2022/09/17 03:58:59;;;;;;;11.48;7.25;;;;;;;25.74;62.44;100395.91;1679327;84;21059;-54
2022/09/17 04:01:26;;;;;;;14.78;7.50;;;;;;;25.79;62.44;100398.17;1679356;85;21096;-58
2022/09/17 04:03:54;;;;;;;8.03;6.92;;;;;;;25.79;62.57;100389.69;1679490;85;21083;-53
2022/09/17 04:06:20;;;;;;;9.38;6.33;;;;;;;25.78;62.75;100389.32;1679177;84;21114;-55
2022/09/17 04:08:47;;;;;;;7.17;5.85;;;;;;;25.78;62.91;100386.66;1679488;84;21055;-54
2022/09/17 04:11:14;;;;;;;7.10;6.05;;;;;;;25.79;62.99;100376.36;1673542;85;21083;-54
2022/09/17 04:13:41;;;;;;;9.68;5.95;;;;;;;25.82;62.96;100373.92;1669830;85;21595;-52
2022/09/17 04:16:08;;;;;;;7.83;5.03;;;;;;;25.81;62.97;100370.41;1669884;84;21016;-52
2022/09/17 04:18:34;;;;;;;7.62;5.47;;;;;;;25.81;63.03;100371.73;1669903;85;21602;-53
2022/09/17 04:21:01;;;;;;;8.50;5.42;;;;;;;25.83;63.02;100365.77;1657884;85;21084;-56
2022/09/17 04:23:28;;;;;;;8.73;5.00;;;;;;;25.91;63.05;100368.21;1669878;86;21099;-52
2022/09/17 04:25:55;;;;;;;8.38;5.72;;;;;;;25.91;63.05;100368.21;1670047;85;21071;-52
2022/09/17 04:28:21;;;;;;;8.15;5.05;;;;;;;25.96;63.15;100357.50;1669850;86;21051;-56
2022/09/17 04:30:48;;;;;;;10.80;4.90;;;;;;;25.96;63.15;100357.50;1670234;86;20992;-54
2022/09/17 04:33:15;;;;;;;9.90;4.92;;;;;;;25.99;63.18;100353.72;1670037;85;21535;-52
2022/09/17 04:35:42;;;;;;;10.00;4.90;;;;;;;26.01;63.25;100351.75;1669755;84;21107;-51
2022/09/17 04:38:08;;;;;;;11.93;5.03;;;;;;;26.03;63.15;100354.60;1663102;85;21099;-51
2022/09/17 04:40:35;;;;;;;7.85;4.47;;;;;;;26.08;63.31;100355.06;1669789;85;21044;-59
2022/09/17 04:43:03;;;;;;;7.75;4.65;;;;;;;26.08;63.31;100355.06;1669562;85;21064;-52
2022/09/17 04:45:32;;;;;;;9.03;4.92;;;;;;;26.10;63.30;100346.92;1669958;85;21091;-61
2022/09/17 04:47:59;;;;;;;12.18;4.75;;;;;;;26.12;63.35;100335.62;1669771;85;21091;-54
2022/09/17 04:50:25;;;;;;;10.75;4.62;;;;;;;26.19;63.54;100340.75;1669769;85;21048;-52
2022/09/17 04:52:52;;;;;;;9.28;3.83;;;;;;;26.19;63.54;100340.75;1669993;86;21051;-58
2022/09/17 04:55:18;;;;;;;14.15;4.33;;;;;;;26.20;63.43;100343.75;1669817;85;21099;-55
2022/09/17 04:57:49;;;;;;;9.78;4.30;;;;;;;26.23;63.44;100338.98;1670102;85;21556;-52
2022/09/17 05:00:16;;;;;;;7.80;3.60;;;;;;;26.30;63.36;100340.56;1658844;86;21061;-53
2022/09/17 05:02:46;;;;;;;9.05;3.90;;;;;;;26.33;63.29;100341.63;1669916;85;21089;-52
2022/09/17 05:05:13;;;;;;;9.23;3.92;;;;;;;26.34;63.20;100340.62;1670099;86;21029;-54
2022/09/17 05:07:41;;;;;;;8.20;3.72;;;;;;;26.40;63.09;100350.72;1663880;86;21592;-56
2022/09/17 05:10:09;;;;;;;8.18;3.22;;;;;;;26.40;63.09;100350.72;1669882;86;21077;-55
2022/09/17 05:12:36;;;;;;;11.38;4.30;;;;;;;26.49;63.08;100352.54;1667675;86;21135;-52
2022/09/17 05:15:03;;;;;;;6.92;3.60;;;;;;;26.52;62.97;100334.92;1667530;86;21117;-56
2022/09/17 05:17:31;;;;;;;9.60;3.30;;;;;;;26.59;62.86;100332.00;1667503;86;21084;-52
2022/09/17 05:19:58;;;;;;;10.25;3.70;;;;;;;26.63;62.78;100325.39;1667692;86;21097;-51
2022/09/17 05:22:24;;;;;;;10.78;4.17;;;;;;;26.68;62.73;100331.14;1667529;86;21033;-52
2022/09/17 05:24:51;;;;;;;11.12;3.70;;;;;;;26.73;62.61;100328.89;1667568;86;21053;-54
2022/09/17 05:27:18;;;;;;;9.63;3.08;;;;;;;26.78;62.44;100323.97;1667706;86;21568;-56
2022/09/17 05:29:44;;;;;;;9.78;4.08;;;;;;;26.83;62.13;100337.70;1667782;86;21037;-52
2022/09/17 05:32:11;;;;;;;9.15;3.50;;;;;;;26.86;61.97;100331.23;1667486;86;21402;-53
2022/09/17 05:34:39;;;;;;;9.53;3.65;;;;;;;26.91;61.93;100339.17;1667696;86;21068;-55
2022/09/17 05:37:07;;;;;;;9.58;3.25;;;;;;;26.95;61.91;100339.22;1667537;86;21064;-52
2022/09/17 05:39:34;;;;;;;14.80;3.00;;;;;;;26.99;61.84;100335.27;1667677;86;21073;-53
2022/09/17 05:42:03;;;;;;;11.20;3.50;;;;;;;27.02;61.84;100337.62;1667499;86;21101;-56
2022/09/17 05:44:29;;;;;;;9.75;3.65;;;;;;;27.04;61.85;100338.31;1668104;86;21037;-58
2022/09/17 05:46:56;;;;;;;10.70;3.75;;;;;;;27.08;61.72;100329.02;1667718;86;21517;-54
2022/09/17 05:49:22;;;;;;;13.40;3.77;;;;;;;27.14;61.88;100328.42;1667567;86;21056;-56
2022/09/17 05:51:50;;;;;;;14.58;3.83;;;;;;;27.19;62.12;100320.81;1667389;86;21093;-54
2022/09/17 05:54:17;;;;;;;8.13;3.17;;;;;;;27.25;61.86;100325.55;1667688;86;21069;-55
2022/09/17 05:56:44;;;;;;;10.38;3.17;;;;;;;27.32;61.39;100327.14;1667465;86;21033;-55
2022/09/17 05:59:11;;;;;;;11.60;3.40;;;;;;;27.37;60.91;100324.38;1667516;86;21064;-54
2022/09/17 06:01:38;;;;;;;13.03;3.08;;;;;;;27.44;60.51;100322.44;1667450;85;21057;-54
2022/09/17 06:04:04;;;;;;;8.88;3.20;;;;;;;27.48;60.23;100317.13;1666953;85;21072;-56
2022/09/17 06:06:31;;;;;;;6.45;2.80;;;;;;;27.54;59.93;100321.87;1661590;86;21033;-54
2022/09/17 06:09:01;;;;;;;8.13;2.98;;;;;;;27.57;59.39;100318.91;1667064;85;21035;-55
2022/09/17 06:11:28;;;;;;;10.70;2.77;;;;;;;27.61;58.95;100320.28;1667304;85;21849;-55
2022/09/17 06:13:55;;;;;;;9.48;2.75;;;;;;;27.64;58.56;100311.95;1667861;85;21037;-58
2022/09/17 06:16:22;;;;;;;11.73;2.95;;;;;;;27.68;58.31;100311.98;1661873;85;21087;-55
2022/09/17 06:18:51;;;;;;;7.78;2.72;;;;;;;27.73;58.03;100316.39;1664785;85;21576;-57
2022/09/17 06:21:20;;;;;;;6.28;3.05;;;;;;;27.76;57.72;100316.09;1640786;85;21031;-56
2022/09/17 06:23:51;;;;;;;7.65;2.37;;;;;;;27.80;57.51;100318.80;1664898;86;21545;-56
2022/09/17 06:26:18;;;;;;;6.15;3.08;;;;;;;27.84;57.26;100313.49;1664830;85;22224;-56
2022/09/17 06:28:45;;;;;;;8.78;2.60;;;;;;;27.87;57.02;100313.16;1659575;86;21009;-54
2022/09/17 06:31:11;;;;;;;6.60;2.67;;;;;;;27.89;56.83;100309.84;1664813;86;21029;-59
2022/09/17 06:33:38;;;;;;;7.55;2.42;;;;;;;27.92;56.65;100309.55;1665961;85;21056;-54
2022/09/17 06:36:07;;;;;;;8.03;2.75;;;;;;;27.95;56.28;100307.87;1687393;83;21503;-54
2022/09/17 06:38:35;;;;;;;8.28;3.00;;;;;;;27.98;56.02;100310.30;1664829;85;21801;-58
2022/09/17 06:41:02;;;;;;;9.10;2.70;;;;;;;28.01;55.79;100317.99;1666363;85;21096;-57
2022/09/17 06:43:29;;;;;;;9.25;2.80;;;;;;;28.03;55.44;100310.65;1664246;85;21056;-55
2022/09/17 06:45:58;;;;;;;9.23;2.77;;;;;;;28.07;55.12;100322.72;1670266;85;21111;-57
2022/09/17 06:48:26;;;;;;;8.68;2.77;;;;;;;28.09;54.94;100323.41;1653156;86;21052;-56
2022/09/17 06:50:53;;;;;;;9.93;3.17;;;;;;;28.12;54.87;100320.43;1664583;85;21087;-54
2022/09/17 06:53:21;;;;;;;7.08;2.67;;;;;;;28.16;54.91;100319.97;1664902;86;21100;-58
2022/09/17 06:55:48;;;;;;;8.15;3.02;;;;;;;28.25;54.79;100319.53;1663235;85;21067;-54
2022/09/17 06:58:15;;;;;;;11.05;2.80;;;;;;;28.34;54.37;100319.91;1668370;85;21062;-55
2022/09/17 07:00:42;;;;;;;5.53;2.62;;;;;;;28.46;54.03;100320.52;1664624;85;21014;-57
2022/09/17 07:03:09;;;;;;;6.95;2.37;;;;;;;28.60;53.75;100327.98;1664844;85;21043;-58
2022/09/17 07:05:37;;;;;;;9.60;2.95;;;;;;;28.74;53.36;100328.73;1664418;85;21053;-57
2022/09/17 07:08:04;;;;;;;8.35;2.55;;;;;;;28.85;53.02;100330.62;1664424;85;21087;-57
2022/09/17 07:10:32;;;;;;;8.20;2.25;;;;;;;28.92;52.84;100333.00;1664772;85;21008;-56
2022/09/17 07:12:59;;;;;;;7.50;2.52;;;;;;;28.97;52.81;100336.02;1666774;86;21096;-57
2022/09/17 07:15:25;;;;;;;10.30;2.50;;;;;;;29.01;52.90;100337.06;1669958;85;21044;-56
2022/09/17 07:17:52;;;;;;;11.22;2.60;;;;;;;29.04;52.87;100337.56;1634552;87;21396;-54
2022/09/17 07:20:19;;;;;;;7.47;2.90;;;;;;;29.08;52.86;100338.92;1667063;85;21071;-54
2022/09/17 07:22:55;;;;;;;7.53;3.30;;;;;;;29.16;52.88;100340.31;1663609;85;21061;-54
2022/09/17 07:25:23;;;;;;;9.45;2.98;;;;;;;29.21;52.97;100341.18;1663100;85;21037;-54
2022/09/17 07:27:50;;;;;;;7.40;2.83;;;;;;;29.26;53.05;100344.23;1667314;86;21063;-54
2022/09/17 07:30:17;;;;;;;7.58;3.17;;;;;;;29.29;53.25;100334.01;1667463;86;21020;-55
2022/09/17 07:32:44;;;;;;;10.72;2.87;;;;;;;29.31;53.41;100334.69;1670659;85;21039;-54
2022/09/17 07:35:11;;;;;;;9.25;3.02;;;;;;;29.34;53.64;100332.19;1667390;85;21151;-54
2022/09/17 07:37:39;;;;;;;7.92;3.00;;;;;;;29.35;53.79;100336.53;1664930;85;21509;-53
2022/09/17 07:40:07;;;;;;;7.20;2.52;;;;;;;29.38;54.05;100336.22;1663046;85;21063;-54
2022/09/17 07:42:34;;;;;;;9.55;3.02;;;;;;;29.39;54.27;100336.54;1667801;86;20985;-57
2022/09/17 07:45:01;;;;;;;8.68;3.15;;;;;;;29.40;54.33;100335.55;1667365;86;21041;-54
2022/09/17 07:47:27;;;;;;;7.80;2.83;;;;;;;29.41;54.41;100335.37;1667413;86;21021;-56
2022/09/17 07:49:54;;;;;;;7.45;3.35;;;;;;;29.42;54.58;100332.20;1670475;85;21057;-56
2022/09/17 07:52:21;;;;;;;10.23;2.83;;;;;;;29.41;54.74;100331.85;1663616;85;21529;-55
2022/09/17 07:54:47;;;;;;;7.10;3.15;;;;;;;29.42;54.85;100333.55;1667148;85;21025;-56
2022/09/17 07:57:14;;;;;;;10.43;2.98;;;;;;;29.41;55.02;100334.53;1667808;86;21068;-58
2022/09/17 07:59:41;;;;;;;9.73;3.30;;;;;;;29.40;55.12;100338.23;1663578;85;21123;-59
2022/09/17 08:02:12;;;;;;;9.53;3.02;;;;;;;29.38;55.25;100343.77;1667420;85;21492;-55
2022/09/17 08:04:40;;;;;;;;;;;;;;;29.38;55.34;100339.75;1670266;85;21603;-58
2022/09/17 08:07:12;;;;;;;6.90;3.15;;;;;;;29.37;55.46;100345.25;1660178;85;20113;-57
2022/09/17 08:09:39;;;;;;;6.45;2.92;;;;;;;29.38;55.58;100345.59;1664774;86;21057;-58
2022/09/17 08:12:07;;;;;;;8.38;2.87;;;;;;;29.37;55.55;100343.91;1668469;86;21085;-55
2022/09/17 08:14:33;;;;;;;9.75;3.37;;;;;;;29.38;55.66;100345.11;1670380;84;21090;-55
2022/09/17 08:17:00;;;;;;;7.15;2.75;;;;;;;29.41;55.68;100353.30;1636042;86;21065;-55
2022/09/17 08:19:32;;;;;;;10.18;2.55;;;;;;;29.43;55.70;100343.28;1691950;84;21027;-55
2022/09/17 08:22:00;;;;;;;9.28;3.12;;;;;;;29.44;55.63;100335.56;1683131;85;21098;-55
2022/09/17 08:24:26;;;;;;;8.05;2.87;;;;;;;29.45;55.60;100331.37;1686227;84;21086;-57
2022/09/17 08:26:53;;;;;;;8.98;2.72;;;;;;;29.47;55.54;100333.91;1686239;84;21090;-56
2022/09/17 08:29:19;;;;;;;11.12;3.72;;;;;;;29.48;55.49;100335.57;1686133;85;21087;-55
2022/09/17 08:31:46;;;;;;;9.18;2.77;;;;;;;29.47;55.57;100339.27;1686193;84;21043;-54
2022/09/17 08:34:13;;;;;;;7.20;2.80;;;;;;;29.47;55.61;100341.42;1670021;84;21100;-56
2022/09/17 08:36:40;;;;;;;11.08;3.17;;;;;;;29.48;55.61;100349.82;1637451;87;21026;-56
2022/09/17 08:39:07;;;;;;;11.22;3.15;;;;;;;29.50;55.59;100340.27;1670233;84;21004;-54
2022/09/17 08:41:57;;;;;;;12.78;3.10;;;;;;;29.52;55.45;100342.28;1672412;84;21425;-54
2022/09/17 08:44:27;;;;;;;8.68;2.80;;;;;;;29.53;55.32;100350.67;1588423;89;21119;-56
2022/09/17 08:47:05;;;;;;;10.30;3.60;;;;;;;29.55;55.25;100341.97;1573193;90;21137;-58
2022/09/17 08:49:44;;;;;;;9.95;3.22;;;;;;;29.55;55.29;100335.27;1603269;89;21125;-55
2022/09/17 08:52:20;;;;;;;;;;;;;;;29.57;55.24;100340.77;1582477;89;21086;-54
2022/09/17 08:55:20;;;;;;;9.25;3.15;;;;;;;29.61;55.02;100329.23;1535649;93;20150;-57
2022/09/17 08:58:09;;;;;;;11.85;2.92;;;;;;;29.62;54.98;100326.88;1537804;92;21593;-55
2022/09/17 09:00:47;;;;;;;6.97;3.08;;;;;;;29.63;54.97;100328.57;1565585;90;21134;-56
2022/09/17 09:03:44;;;;;;;7.55;2.90;;;;;;;29.65;54.90;100331.92;1569538;90;21054;-56
2022/09/17 09:06:11;;;;;;;11.18;2.92;;;;;;;29.67;54.86;100323.21;1566138;90;21199;-56
2022/09/17 09:08:44;;;;;;;10.03;2.72;;;;;;;29.70;54.76;100322.86;1565764;92;21734;-57
2022/09/17 09:11:26;;;;;;;12.88;3.15;;;;;;;29.72;54.53;100327.56;1567083;90;21039;-58
2022/09/17 09:13:58;;;;;;;9.98;2.87;;;;;;;29.74;54.08;100325.58;1547255;92;21091;-57
2022/09/17 09:16:28;;;;;;;6.67;2.85;;;;;;;29.77;53.80;100322.58;1533283;94;21055;-53
2022/09/17 09:18:58;;;;;;;9.05;3.10;;;;;;;29.80;53.48;100321.42;1464051;98;21144;-54
2022/09/17 09:21:33;;;;;;;7.78;2.95;;;;;;;29.81;53.46;100314.53;1466988;97;21267;-52
2022/09/17 09:24:11;;;;;;;12.73;3.47;;;;;;;29.82;53.44;100314.04;1434670;99;21179;-55
2022/09/17 09:27:05;;;;;;;7.85;2.75;;;;;;;29.82;53.42;100312.17;1427747;99;21219;-57
2022/09/17 09:29:55;;;;;;;9.50;2.87;;;;;;;29.82;53.43;100314.86;1435763;98;21156;-57
2022/09/17 09:33:01;;;;;;;8.33;2.80;;;;;;;29.82;53.52;100322.91;1426177;99;21080;-54
2022/09/17 09:35:31;;;;;;;7.28;2.62;;;;;;;29.85;53.44;100318.56;1459272;98;21097;-60
2022/09/17 09:38:33;;;;;;;7.97;2.52;;;;;;;29.86;53.42;100314.89;1455379;98;21101;-54
2022/09/17 09:41:17;;;;;;;7.95;3.27;;;;;;;29.88;53.39;100315.56;1420380;100;21649;-56
2022/09/17 09:43:49;;;;;;;7.67;2.72;;;;;;;29.90;53.30;100304.16;1450114;98;21577;-52
2022/09/17 09:46:37;;;;;;;7.67;3.00;;;;;;;29.91;53.37;100303.14;1414378;100;21160;-56
2022/09/17 09:49:52;;;;;;;6.72;2.35;;;;;;;29.92;53.50;100297.27;1429033;99;21152;-54
2022/09/17 09:52:27;;;;;;;10.70;2.87;;;;;;;29.93;53.62;100297.59;1434623;99;21140;-54
2022/09/17 09:55:24;;;;;;;8.68;3.20;;;;;;;29.95;53.78;100288.37;1458024;97;21114;-55
2022/09/17 09:58:15;;;;;;;7.12;2.95;;;;;;;29.97;53.88;100286.36;1468418;97;21111;-54
2022/09/17 10:00:43;;;;;;;9.33;3.30;;;;;;;29.99;54.04;100278.14;1487946;91;21179;-58
2022/09/17 10:03:25;;;;;;;11.20;2.87;;;;;;;30.01;54.10;100274.28;1565090;91;21071;-55
2022/09/17 10:05:57;;;;;;;11.25;2.58;;;;;;;30.03;54.10;100283.00;1555194;90;21064;-54
2022/09/17 10:08:25;;;;;;;8.48;2.87;;;;;;;30.05;54.15;100293.06;1553404;90;21078;-58
2022/09/17 10:11:14;;;;;;;9.83;2.77;;;;;;;30.06;54.17;100285.86;1542230;91;21105;-56
2022/09/17 10:13:40;;;;;;;11.28;4.17;;;;;;;30.08;54.21;100282.01;1537255;92;21107;-56
2022/09/17 10:16:22;;;;;;;9.45;2.95;;;;;;;30.08;54.24;100277.98;1603564;87;21032;-54
2022/09/17 10:19:08;;;;;;;8.33;3.27;;;;;;;30.08;54.24;100277.98;1637499;86;21080;-55
2022/09/17 10:21:38;;;;;;;15.03;3.15;;;;;;;30.07;54.28;100278.16;1618319;88;21400;-53
2022/09/17 10:24:13;;;;;;;9.23;2.80;;;;;;;30.07;54.28;100276.29;1659480;86;21539;-55
2022/09/17 10:26:40;;;;;;;7.87;3.15;;;;;;;30.05;54.31;100268.91;1601433;88;21046;-55
2022/09/17 10:29:13;;;;;;;7.75;2.52;;;;;;;30.04;54.30;100265.91;1603370;89;21546;-56
2022/09/17 10:31:54;;;;;;;5.80;2.37;;;;;;;30.04;54.17;100267.25;1554176;92;21126;-54
2022/09/17 10:34:27;;;;;;;12.20;2.90;;;;;;;30.03;54.11;100253.49;1541684;92;21128;-54
2022/09/17 10:36:57;;;;;;;8.28;2.45;;;;;;;30.01;54.04;100256.84;1530951;93;21078;-55
2022/09/17 10:39:36;;;;;;;5.55;2.15;;;;;;;30.00;54.01;100252.51;1542735;92;21078;-53
2022/09/17 10:42:17;;;;;;;11.20;2.77;;;;;;;29.98;53.91;100246.47;1531075;93;21129;-54
2022/09/17 10:44:55;;;;;;;15.17;3.13;;;;;;;29.97;53.92;100248.80;1552160;91;21148;-57
2022/09/17 10:47:31;;;;;;;6.25;2.17;;;;;;;29.96;53.98;100243.62;1590789;88;21077;-55
2022/09/17 10:50:07;;;;;;;9.08;2.45;;;;;;;29.94;53.88;100241.11;1596642;88;21546;-57
2022/09/17 10:52:37;;;;;;;10.08;2.55;;;;;;;29.95;53.85;100236.56;1589230;88;21042;-55
2022/09/17 10:55:45;;;;;;;6.45;2.72;;;;;;;29.95;53.91;100242.77;1579750;89;21115;-54
2022/09/17 10:58:39;;;;;;;10.43;2.77;;;;;;;29.94;53.97;100238.43;1580389;89;21003;-56
2022/09/17 11:01:43;;;;;;;12.70;3.27;;;;;;;29.96;54.00;100240.44;1575643;89;21112;-62
2022/09/17 11:04:20;;;;;;;10.93;3.47;;;;;;;29.98;53.96;100235.73;1576052;89;21133;-57
2022/09/17 11:07:11;;;;;;;10.00;2.95;;;;;;;30.01;53.83;100222.47;1574783;90;21125;-55
2022/09/17 11:10:07;;;;;;;7.80;2.75;;;;;;;30.03;53.76;100228.00;1571598;90;21093;-58
2022/09/17 11:13:02;;;;;;;9.93;2.80;;;;;;;30.07;53.60;100236.05;1567204;90;21224;-54
2022/09/17 11:15:57;;;;;;;8.00;2.40;;;;;;;30.07;53.56;100234.70;1593859;90;21028;-58
2022/09/17 11:18:45;;;;;;;7.08;2.60;;;;;;;30.12;53.47;100232.85;1594909;88;21073;-55
2022/09/17 11:21:26;;;;;;;9.28;2.77;;;;;;;30.12;53.45;100233.70;1598965;86;21031;-59
2022/09/17 11:24:05;;;;;;;;;;;;;;;30.14;53.36;100226.31;1634045;86;21582;-58
2022/09/17 11:26:44;;;;;;;8.60;2.98;;;;;;;30.16;53.25;100226.14;1629687;86;20132;-56
2022/09/17 11:29:48;;;;;;;8.45;2.75;;;;;;;30.16;53.08;100235.03;1578855;91;21077;-55
2022/09/17 11:32:44;;;;;;;8.30;2.50;;;;;;;30.14;53.06;100228.16;1576804;91;21582;-57
2022/09/17 11:35:24;;;;;;;5.55;2.60;;;;;;;30.09;53.14;100215.24;1577137;90;21071;-57
2022/09/17 11:38:00;;;;;;;8.38;2.80;;;;;;;30.04;53.20;100225.67;1578346;91;21082;-55
2022/09/17 11:40:36;;;;;;;10.13;3.35;;;;;;;29.99;53.32;100217.28;1597198;89;21580;-61
2022/09/17 11:43:27;;;;;;;10.00;2.80;;;;;;;29.95;53.50;100228.52;1528633;92;21716;-54
2022/09/17 11:46:07;;;;;;;9.55;2.90;;;;;;;29.89;53.66;100230.04;1527849;92;21185;-52
2022/09/17 11:48:47;;;;;;;8.25;2.40;;;;;;;29.81;53.87;100227.37;1502250;94;21136;-56
2022/09/17 11:51:23;;;;;;;9.43;2.90;;;;;;;29.74;54.18;100231.22;1524939;92;21124;-60
2022/09/17 11:54:01;;;;;;;7.83;2.37;;;;;;;29.68;54.29;100227.84;1507005;93;21066;-55